Time;durP1;ratioP1;P1;durP2;ratioP2;P2;SDS_P1;SDS_P2;PMS_P1;PMS_P2;Temp;Humidity;BMP_temperature;BMP_pressure;BME280_temperature;BME280_humidity;BME280_pressure;Samples;Min_cycle;Max_cycle;Signal;HPM_P1;HPM_P2
2022/04/16 00:01:27;;;;;;;8.27;4.32;;;10.50;99.90;;;;;;4908142;29;20095;-51
2022/04/16 00:03:55;;;;;;;6.75;4.07;;;10.50;99.90;;;;;;4918360;29;20048;-52
2022/04/16 00:06:22;;;;;;;5.35;3.70;;;10.50;99.90;;;;;;4918477;29;20052;-49
2022/04/16 00:08:49;;;;;;;7.43;3.67;;;10.40;99.90;;;;;;4918432;29;20513;-49
2022/04/16 00:11:15;;;;;;;5.43;3.58;;;10.40;99.90;;;;;;4909553;29;20639;-50
2022/04/16 00:13:42;;;;;;;2.85;2.25;;;10.40;99.90;;;;;;4918262;29;20096;-50
2022/04/16 00:16:09;;;;;;;4.35;3.00;;;10.30;99.90;;;;;;4918094;29;20409;-50
2022/04/16 00:18:36;;;;;;;4.07;2.75;;;10.30;99.90;;;;;;4916084;29;20103;-49
2022/04/16 00:21:04;;;;;;;5.00;2.88;;;10.30;99.90;;;;;;4917479;29;20104;-49
2022/04/16 00:23:31;;;;;;;5.38;2.75;;;10.30;99.90;;;;;;4918049;29;20509;-50
2022/04/16 00:25:58;;;;;;;6.50;2.67;;;10.30;99.90;;;;;;4912574;29;20044;-50
2022/04/16 00:28:28;;;;;;;5.70;3.03;;;10.20;99.90;;;;;;4917586;29;20446;-51
2022/04/16 00:30:56;;;;;;;4.22;3.20;;;10.20;99.90;;;;;;4917721;29;20082;-50
2022/04/16 00:33:25;;;;;;;9.32;3.38;;;10.10;99.90;;;;;;4917984;29;20149;-50
2022/04/16 00:35:52;;;;;;;5.93;3.60;;;10.10;99.90;;;;;;4911031;29;20104;-51
2022/04/16 00:38:19;;;;;;;6.63;3.63;;;10.10;99.90;;;;;;4916626;29;20052;-50
2022/04/16 00:40:46;;;;;;;7.05;3.70;;;10.00;99.90;;;;;;4917405;29;20048;-50
2022/04/16 00:43:27;;;;;;;7.70;4.47;;;10.10;99.90;;;;;;4917637;29;20044;-50
2022/04/16 00:45:54;;;;;;;7.38;3.92;;;10.00;99.90;;;;;;4915146;29;20104;-50
2022/04/16 00:48:22;;;;;;;7.05;4.03;;;10.00;99.90;;;;;;4917428;29;20055;-51
2022/04/16 00:50:50;;;;;;;6.28;4.07;;;10.00;99.90;;;;;;4916974;29;20111;-50
2022/04/16 00:53:18;;;;;;;9.52;4.05;;;10.00;99.90;;;;;;4917692;29;20143;-49
2022/04/16 00:55:45;;;;;;;7.00;4.72;;;10.00;99.90;;;;;;4913115;29;20095;-49
2022/04/16 00:58:12;;;;;;;8.70;4.75;;;10.00;99.90;;;;;;4917429;29;20052;-53
2022/04/16 01:00:39;;;;;;;10.68;4.60;;;10.00;99.90;;;;;;4917062;29;20056;-48
2022/04/16 01:03:07;;;;;;;10.38;5.00;;;10.00;99.90;;;;;;4917439;29;20077;-50
2022/04/16 01:05:35;;;;;;;11.40;4.78;;;10.00;99.90;;;;;;4899306;29;20383;-49
2022/04/16 01:08:04;;;;;;;9.27;5.45;;;10.00;99.90;;;;;;4917293;29;20416;-49
2022/04/16 01:10:33;;;;;;;9.82;4.63;;;9.90;99.90;;;;;;4916928;29;20048;-49
2022/04/16 01:13:05;;;;;;;9.65;5.65;;;9.90;99.90;;;;;;4911675;29;20048;-49
2022/04/16 01:15:32;;;;;;;9.93;5.00;;;9.90;99.90;;;;;;4910145;29;20048;-50
2022/04/16 01:18:02;;;;;;;11.35;5.15;;;9.90;99.90;;;;;;4917302;29;20493;-51
2022/04/16 01:20:33;;;;;;;8.82;5.35;;;9.90;99.90;;;;;;4913997;29;20466;-49
2022/04/16 01:23:01;;;;;;;9.30;5.30;;;9.80;99.90;;;;;;4913511;29;20052;-49
2022/04/16 01:25:28;;;;;;;9.60;5.97;;;9.80;99.90;;;;;;4898229;29;20077;-50
2022/04/16 01:27:55;;;;;;;6.90;5.05;;;9.80;99.90;;;;;;4898239;29;20040;-49
2022/04/16 01:30:23;;;;;;;9.40;5.78;;;9.70;99.90;;;;;;4900521;29;20687;-48
2022/04/16 01:32:50;;;;;;;8.90;5.40;;;9.70;99.90;;;;;;4916650;29;20052;-49
2022/04/16 01:35:17;;;;;;;9.35;5.57;;;9.70;99.90;;;;;;4916776;29;20465;-49
2022/04/16 01:37:44;;;;;;;10.48;5.57;;;9.70;99.90;;;;;;4916881;29;20056;-50
2022/04/16 01:40:14;;;;;;;8.55;5.38;;;9.70;99.90;;;;;;4912039;29;20057;-50
2022/04/16 01:42:43;;;;;;;11.75;5.32;;;9.60;99.90;;;;;;4916451;29;20048;-50
2022/04/16 01:45:11;;;;;;;9.00;4.80;;;9.60;99.90;;;;;;4916758;29;20048;-52
2022/04/16 01:47:38;;;;;;;6.97;4.20;;;9.60;99.90;;;;;;4916664;29;20052;-50
2022/04/16 01:50:07;;;;;;;6.32;4.40;;;9.60;99.90;;;;;;4912154;29;20095;-49
2022/04/16 01:52:39;;;;;;;8.63;4.25;;;9.50;99.90;;;;;;4916483;29;20096;-48
2022/04/16 01:55:06;;;;;;;7.05;4.38;;;9.50;99.90;;;;;;4916582;29;20048;-50
2022/04/16 01:57:33;;;;;;;7.30;4.10;;;9.50;99.90;;;;;;4916556;29;20043;-49
2022/04/16 01:59:59;;;;;;;6.13;3.90;;;9.50;99.90;;;;;;4909422;29;20044;-49
2022/04/16 02:02:26;;;;;;;7.82;4.25;;;9.50;99.90;;;;;;4915508;29;20505;-49
2022/04/16 02:04:53;;;;;;;8.88;4.13;;;9.50;99.90;;;;;;4916347;29;20051;-49
2022/04/16 02:07:20;;;;;;;5.30;3.30;;;9.50;99.90;;;;;;4909037;29;20052;-49
2022/04/16 02:09:47;;;;;;;10.02;4.72;;;9.50;99.90;;;;;;4915810;29;20458;-49
2022/04/16 02:12:14;;;;;;;9.35;4.45;;;9.50;99.90;;;;;;4915134;29;20044;-49
2022/04/16 02:14:41;;;;;;;7.72;4.40;;;9.50;99.90;;;;;;4913184;29;20056;-51
2022/04/16 02:17:07;;;;;;;7.95;4.68;;;9.40;99.90;;;;;;4913440;29;20111;-50
2022/04/16 02:19:36;;;;;;;10.93;4.68;;;9.30;99.90;;;;;;4915786;29;20051;-49
2022/04/16 02:22:04;;;;;;;6.82;4.50;;;9.20;99.90;;;;;;4915542;23;20048;-55
2022/04/16 02:24:30;;;;;;;;;;;9.20;99.90;;;;;;4915738;29;20040;-54
2022/04/16 02:26:58;;;;;;;6.93;4.63;;;9.10;99.90;;;;;;4915995;29;19995;-56
2022/04/16 02:29:25;;;;;;;8.93;4.90;;;9.10;99.90;;;;;;4915657;29;20047;-54
2022/04/16 02:31:53;;;;;;;7.80;5.28;;;9.10;99.90;;;;;;4910338;29;20056;-58
2022/04/16 02:34:20;;;;;;;9.48;5.18;;;9.10;99.90;;;;;;4914799;29;20050;-56
2022/04/16 02:36:47;;;;;;;7.25;4.95;;;9.00;99.90;;;;;;4915839;29;20096;-57
2022/04/16 02:39:15;;;;;;;11.75;6.35;;;9.10;99.90;;;;;;4915749;29;20487;-56
2022/04/16 02:41:41;;;;;;;;;;;9.00;99.90;;;;;;4910889;29;20062;-53
2022/04/16 02:47:05;;;;;;;9.35;5.25;;;9.00;99.90;;;;;;4915473;29;19923;-56
2022/04/16 02:47:08;;;;;;;9.60;5.97;;;9.00;99.90;;;;;;4907038;29;20494;-55
2022/04/16 02:49:40;;;;;;;11.13;5.13;;;9.00;99.90;;;;;;4900481;29;20040;-53
2022/04/16 02:52:08;;;;;;;6.93;4.88;;;8.90;99.90;;;;;;4915392;29;20565;-56
2022/04/16 02:54:36;;;;;;;8.57;5.28;;;8.80;99.90;;;;;;4915543;29;20079;-55
2022/04/16 02:57:03;;;;;;;7.47;5.05;;;8.80;99.90;;;;;;4897911;29;20044;-56
2022/04/16 02:59:33;;;;;;;7.47;4.90;;;8.80;99.90;;;;;;4915054;29;20051;-57
2022/04/16 03:02:00;;;;;;;8.38;4.93;;;8.70;99.90;;;;;;4915508;29;20048;-56
2022/04/16 03:04:27;;;;;;;7.70;4.43;;;8.70;99.90;;;;;;4913759;29;20092;-57
2022/04/16 03:06:55;;;;;;;8.60;4.57;;;8.60;99.90;;;;;;4911040;29;20052;-55
2022/04/16 03:09:21;;;;;;;8.68;5.15;;;8.50;99.90;;;;;;4915199;29;20054;-57
2022/04/16 03:11:48;;;;;;;9.05;5.28;;;8.50;99.90;;;;;;4915042;29;20096;-56
2022/04/16 03:19:46;;;;;;;10.00;5.40;;;8.40;99.90;;;;;;4914945;29;20059;-55
2022/04/16 03:22:13;;;;;;;11.45;5.85;;;8.40;99.90;;;;;;4913817;29;20119;-56
2022/04/16 03:24:40;;;;;;;;;;;8.40;99.90;;;;;;4915573;29;20040;-56
2022/04/16 03:27:07;;;;;;;9.15;5.20;;;8.30;99.90;;;;;;4915299;29;19923;-56
2022/04/16 03:29:34;;;;;;;;;;;8.30;99.90;;;;;;4915340;29;20036;-55
2022/04/16 03:32:01;;;;;;;12.65;6.45;;;8.30;99.90;;;;;;4908651;29;20315;-56
2022/04/16 03:34:28;;;;;;;11.07;6.05;;;8.30;99.90;;;;;;4907593;29;20060;-54
2022/04/16 03:36:55;;;;;;;10.20;5.90;;;8.20;99.90;;;;;;4915245;29;20052;-57
2022/04/16 03:39:22;;;;;;;14.50;6.85;;;8.20;99.90;;;;;;4906075;29;20048;-54
2022/04/16 03:41:48;;;;;;;12.60;6.40;;;8.20;99.90;;;;;;4914889;29;20037;-55
2022/04/16 03:44:15;;;;;;;12.88;6.95;;;8.20;99.90;;;;;;4915001;29;20100;-56
2022/04/16 03:46:42;;;;;;;9.98;6.93;;;8.20;99.90;;;;;;4912713;29;20394;-55
2022/04/16 03:49:09;;;;;;;10.30;6.30;;;8.10;99.90;;;;;;4912624;29;20040;-56
2022/04/16 03:51:36;;;;;;;9.25;6.40;;;8.10;99.90;;;;;;4914657;29;20044;-55
2022/04/16 04:02:19;;;;;;;9.68;6.00;;;8.10;99.90;;;;;;4896093;29;20060;-55
2022/04/16 04:04:46;;;;;;;9.20;5.90;;;8.10;99.90;;;;;;4901547;29;20032;-55
2022/04/16 04:07:13;;;;;;;10.38;5.75;;;8.00;99.90;;;;;;4914665;29;20052;-55
2022/04/16 04:09:40;;;;;;;11.48;6.30;;;8.00;99.90;;;;;;4897561;29;20461;-54
2022/04/16 04:12:11;;;;;;;9.40;5.65;;;8.00;99.90;;;;;;4910825;29;20391;-54
2022/04/16 04:14:44;;;;;;;10.75;6.35;;;7.90;99.90;;;;;;4914818;29;20067;-56
2022/04/16 04:17:12;;;;;;;9.18;5.82;;;7.90;99.90;;;;;;4914918;29;20056;-56
2022/04/16 04:19:44;;;;;;;11.18;6.88;;;7.90;99.90;;;;;;4914446;29;20394;-55
2022/04/16 04:22:12;;;;;;;12.75;6.80;;;7.90;99.90;;;;;;4909591;29;20569;-55
2022/04/16 04:24:41;;;;;;;10.13;6.35;;;7.90;99.90;;;;;;4916263;29;20040;-57
2022/04/16 04:27:08;;;;;;;11.70;6.65;;;7.90;99.90;;;;;;4918132;29;20095;-56
2022/04/16 04:29:36;;;;;;;12.63;6.40;;;7.90;99.90;;;;;;4917758;29;20043;-56
2022/04/16 04:32:06;;;;;;;11.57;6.20;;;7.80;99.90;;;;;;4912137;29;20463;-55
2022/04/16 04:34:32;;;;;;;12.63;5.82;;;7.80;99.90;;;;;;4917766;29;20552;-54
2022/04/16 04:36:59;;;;;;;9.82;5.55;;;7.80;99.90;;;;;;4918025;29;20048;-56
2022/04/16 04:39:26;;;;;;;10.18;6.60;;;7.80;99.90;;;;;;4914720;29;20125;-55
2022/04/16 04:41:53;;;;;;;10.50;6.22;;;7.70;99.90;;;;;;4913374;29;20096;-56
2022/04/16 04:44:20;;;;;;;10.10;6.07;;;7.80;99.90;;;;;;4917683;29;20508;-56
2022/04/16 04:46:52;;;;;;;10.52;6.25;;;7.80;99.90;;;;;;4917804;29;20764;-57
2022/04/16 04:49:19;;;;;;;12.98;6.47;;;7.70;99.90;;;;;;4916610;29;20040;-56
2022/04/16 04:51:45;;;;;;;10.43;6.65;;;7.70;99.90;;;;;;4917338;29;20048;-57
2022/04/16 04:54:12;;;;;;;9.57;6.25;;;7.70;99.90;;;;;;4917771;29;20051;-54
2022/04/16 04:56:39;;;;;;;11.10;6.07;;;7.70;99.90;;;;;;4917242;29;20478;-56
2022/04/16 04:59:05;;;;;;;10.53;6.27;;;7.60;99.90;;;;;;4916932;29;20044;-55
2022/04/16 05:01:32;;;;;;;12.20;6.85;;;7.70;99.90;;;;;;4917033;29;20296;-56
2022/04/16 05:03:59;;;;;;;9.70;6.22;;;7.70;99.90;;;;;;4917448;29;20135;-57
2022/04/16 05:06:26;;;;;;;12.30;6.13;;;7.70;99.90;;;;;;4914323;29;20123;-55
2022/04/16 05:08:53;;;;;;;7.53;4.72;;;7.70;99.90;;;;;;4912867;29;20048;-55
2022/04/16 05:11:20;;;;;;;11.27;6.03;;;7.70;99.90;;;;;;4916932;29;20044;-55
2022/04/16 05:13:46;;;;;;;12.93;6.70;;;7.70;99.90;;;;;;4917383;29;20056;-55
2022/04/16 05:16:13;;;;;;;13.75;6.70;;;7.70;99.90;;;;;;4914830;29;20513;-56
2022/04/16 05:18:41;;;;;;;14.50;6.78;;;7.60;99.90;;;;;;4915895;29;20048;-54
2022/04/16 05:21:08;;;;;;;12.18;6.15;;;7.70;99.90;;;;;;4880972;29;20438;-54
2022/04/16 05:23:39;;;;;;;10.77;6.20;;;7.60;99.90;;;;;;4898391;29;20506;-55
2022/04/16 05:26:10;;;;;;;11.05;6.25;;;7.60;99.90;;;;;;4898818;29;20126;-56
2022/04/16 05:28:38;;;;;;;12.40;7.20;;;7.60;99.90;;;;;;4916850;29;20032;-55
2022/04/16 05:31:06;;;;;;;13.38;6.82;;;7.60;99.90;;;;;;4916547;29;20096;-55
2022/04/16 05:36:19;;;;;;;11.20;6.78;;;7.60;99.90;;;;;;4908511;29;20052;-56
2022/04/16 05:38:46;;;;;;;10.48;6.07;;;7.60;99.90;;;;;;4916774;29;20040;-54
2022/04/16 05:41:13;;;;;;;;;;;7.60;99.90;;;;;;4916774;29;20047;-57
2022/04/16 05:43:39;;;;;;;12.70;6.65;;;7.70;99.90;;;;;;4914177;29;19930;-53
2022/04/16 05:46:06;;;;;;;12.10;6.50;;;7.70;99.90;;;;;;4913627;29;20062;-56
2022/04/16 05:48:33;;;;;;;13.13;6.90;;;7.70;99.90;;;;;;4916706;29;20083;-55
2022/04/16 05:51:01;;;;;;;13.05;6.43;;;7.70;99.90;;;;;;4916225;29;20162;-57
2022/04/16 05:53:28;;;;;;;13.35;7.78;;;7.70;99.90;;;;;;4912671;29;20103;-56
2022/04/16 05:55:55;;;;;;;;;;;7.70;99.90;;;;;;4917004;29;20115;-56
2022/04/16 05:58:22;;;;;;;12.80;7.15;;;7.70;99.90;;;;;;4916476;29;19923;-56
2022/04/16 06:00:48;;;;;;;11.70;7.22;;;7.70;99.90;;;;;;4916140;29;20075;-55
2022/04/16 06:03:19;;;;;;;11.85;7.13;;;7.70;99.90;;;;;;4911917;29;20489;-54
2022/04/16 06:05:46;;;;;;;13.13;7.38;;;7.70;99.90;;;;;;4915198;29;20040;-57
2022/04/16 06:08:13;;;;;;;11.73;6.65;;;7.70;99.90;;;;;;4916257;29;20044;-56
2022/04/16 06:10:40;;;;;;;10.73;6.53;;;7.70;99.90;;;;;;4908604;29;20406;-54
2022/04/16 06:13:11;;;;;;;17.88;6.80;;;7.80;99.90;;;;;;4916027;29;20044;-57
2022/04/16 06:15:41;;;;;;;11.65;6.72;;;7.80;99.90;;;;;;4916219;29;20044;-57
2022/04/16 06:18:08;;;;;;;13.00;6.68;;;7.90;99.90;;;;;;4898201;29;20463;-56
2022/04/16 06:20:35;;;;;;;;;;;7.90;99.90;;;;;;4915969;29;20036;-56
2022/04/16 06:23:03;;;;;;;12.20;6.85;;;8.00;99.90;;;;;;4915805;29;20346;-56
2022/04/16 06:25:30;;;;;;;11.02;6.63;;;8.00;99.90;;;;;;4916049;29;20051;-53
2022/04/16 06:27:57;;;;;;;12.27;6.40;;;8.00;99.90;;;;;;4908920;29;20048;-55
2022/04/16 06:30:24;;;;;;;12.13;6.53;;;8.10;99.90;;;;;;4915095;29;20040;-56
2022/04/16 06:32:51;;;;;;;12.93;6.70;;;8.10;99.90;;;;;;4901457;29;20040;-54
2022/04/16 06:35:17;;;;;;;12.40;7.33;;;8.20;99.90;;;;;;4880407;29;20104;-56
2022/04/16 06:37:44;;;;;;;11.95;7.13;;;8.30;99.90;;;;;;4910070;29;20296;-56
2022/04/16 06:40:12;;;;;;;13.40;6.47;;;8.40;99.90;;;;;;4915335;29;20103;-53
2022/04/16 06:42:39;;;;;;;12.25;7.03;;;8.40;99.90;;;;;;4915695;29;20056;-57
2022/04/16 06:45:10;;;;;;;12.45;7.13;;;8.30;99.90;;;;;;4895208;29;20053;-56
2022/04/16 06:47:37;;;;;;;11.18;6.60;;;8.30;99.90;;;;;;4915183;29;20538;-56
2022/04/16 06:50:05;;;;;;;14.25;7.28;;;8.30;99.90;;;;;;4915354;29;20049;-56
2022/04/16 06:52:32;;;;;;;14.82;7.95;;;8.30;99.90;;;;;;4905806;29;20045;-55
2022/04/16 06:54:59;;;;;;;14.30;7.80;;;8.30;99.90;;;;;;4912076;29;20450;-55
2022/04/16 06:57:26;;;;;;;14.35;7.78;;;8.30;99.90;;;;;;4898656;29;20040;-53
2022/04/16 06:59:57;;;;;;;13.70;7.47;;;8.30;99.90;;;;;;4915218;29;20082;-56
2022/04/16 07:02:24;;;;;;;14.00;7.43;;;8.30;99.90;;;;;;4896801;29;20043;-55
2022/04/16 07:04:51;;;;;;;13.23;7.35;;;8.30;99.90;;;;;;4915259;29;20050;-57
2022/04/16 07:07:18;;;;;;;11.73;7.45;;;8.40;99.90;;;;;;4915396;29;20044;-56
2022/04/16 07:09:45;;;;;;;12.38;6.60;;;8.40;99.90;;;;;;4898871;29;20096;-55
2022/04/16 07:12:11;;;;;;;14.23;7.63;;;8.50;99.90;;;;;;4904714;29;20057;-56
2022/04/16 07:14:39;;;;;;;12.13;7.20;;;8.50;99.90;;;;;;4915208;29;20288;-57
2022/04/16 07:17:09;;;;;;;13.07;7.25;;;8.60;99.90;;;;;;4915296;29;20119;-57
2022/04/16 07:19:36;;;;;;;12.13;7.30;;;8.60;99.90;;;;;;4914911;29;20108;-56
2022/04/16 07:22:03;;;;;;;12.73;7.05;;;8.60;99.90;;;;;;4913882;29;20052;-57
2022/04/16 07:24:30;;;;;;;10.43;6.88;;;8.70;99.90;;;;;;4915109;29;20420;-56
2022/04/16 07:26:57;;;;;;;16.38;7.50;;;8.70;99.90;;;;;;4914907;29;20036;-56
2022/04/16 07:29:25;;;;;;;13.88;7.20;;;8.80;99.90;;;;;;4907748;29;20048;-54
2022/04/16 07:31:52;;;;;;;13.60;7.65;;;8.70;99.90;;;;;;4910309;29;20111;-56
2022/04/16 07:34:19;;;;;;;15.88;8.00;;;8.80;99.90;;;;;;4915200;29;20055;-55
2022/04/16 07:36:46;;;;;;;13.68;7.65;;;8.90;99.90;;;;;;4915166;29;20044;-57
2022/04/16 07:39:13;;;;;;;12.65;7.78;;;8.80;99.90;;;;;;4908680;29;20040;-56
2022/04/16 07:41:40;;;;;;;12.93;7.07;;;8.90;99.90;;;;;;4914636;29;20048;-57
2022/04/16 07:44:07;;;;;;;13.88;7.10;;;8.80;99.90;;;;;;4909416;29;20048;-56
2022/04/16 07:46:35;;;;;;;13.65;7.57;;;8.80;99.90;;;;;;4914994;29;20047;-57
2022/04/16 07:49:03;;;;;;;12.70;7.53;;;8.70;99.90;;;;;;4915085;29;20059;-56
2022/04/16 07:51:30;;;;;;;13.43;7.10;;;8.60;99.90;;;;;;4907752;29;20036;-56
2022/04/16 07:53:57;;;;;;;13.25;7.28;;;8.50;99.90;;;;;;4914881;29;20493;-56
2022/04/16 07:56:25;;;;;;;14.70;7.68;;;8.50;99.90;;;;;;4914478;29;20048;-54
2022/04/16 07:58:53;;;;;;;12.50;7.70;;;8.50;99.90;;;;;;4910608;29;20069;-55
2022/04/16 08:01:20;;;;;;;14.48;7.45;;;8.60;99.90;;;;;;4917140;29;20052;-56
2022/04/16 08:03:48;;;;;;;13.88;7.85;;;8.70;99.90;;;;;;4918500;29;20051;-55
2022/04/16 08:06:14;;;;;;;13.52;7.60;;;8.70;99.90;;;;;;4918492;29;20052;-57
2022/04/16 08:08:42;;;;;;;12.50;7.10;;;8.80;99.90;;;;;;4912566;29;20051;-55
2022/04/16 08:11:10;;;;;;;16.95;7.00;;;8.90;99.90;;;;;;4915072;29;20055;-56
2022/04/16 08:13:36;;;;;;;14.35;8.32;;;8.90;99.90;;;;;;4918457;29;20115;-56
2022/04/16 08:16:04;;;;;;;13.00;7.47;;;9.00;99.90;;;;;;4918371;29;20501;-55
2022/04/16 08:18:31;;;;;;;;;;;9.00;99.90;;;;;;4914537;29;20044;-55
2022/04/16 08:20:58;;;;;;;12.30;7.60;;;9.10;99.90;;;;;;4913974;29;19923;-57
2022/04/16 08:23:26;;;;;;;11.63;7.05;;;9.20;99.90;;;;;;4924276;23;20527;-50
2022/04/16 08:25:54;;;;;;;13.40;7.20;;;9.20;99.90;;;;;;4927922;29;20068;-48
2022/04/16 08:28:20;;;;;;;;;;;9.30;99.90;;;;;;4925702;29;20043;-49
2022/04/16 08:30:47;;;;;;;11.43;7.00;;;9.30;99.90;;;;;;4926917;29;20439;-49
2022/04/16 08:33:16;;;;;;;13.40;6.97;;;9.50;99.90;;;;;;4914768;29;20082;-52
2022/04/16 08:35:44;;;;;;;11.85;7.15;;;9.50;99.90;;;;;;4909780;29;20052;-49
2022/04/16 08:38:12;;;;;;;12.75;7.55;;;9.60;99.90;;;;;;4904942;29;20044;-50
2022/04/16 08:40:39;;;;;;;11.77;7.07;;;9.70;99.90;;;;;;4897634;29;20409;-50
2022/04/16 08:43:12;;;;;;;12.02;7.07;;;9.70;99.90;;;;;;4906706;29;20055;-51
2022/04/16 08:45:40;;;;;;;14.00;7.55;;;10.00;99.90;;;;;;4915071;29;20052;-48
2022/04/16 08:48:08;;;;;;;12.20;7.45;;;10.30;99.90;;;;;;4897211;29;20060;-51
2022/04/16 08:50:36;;;;;;;11.90;7.50;;;10.60;99.90;;;;;;4898495;29;20104;-50
2022/04/16 08:53:03;;;;;;;14.35;7.57;;;11.00;99.90;;;;;;4906939;29;20048;-48
2022/04/16 08:55:30;;;;;;;12.27;7.00;;;11.20;99.90;;;;;;4917608;29;20107;-49
2022/04/16 08:57:57;;;;;;;12.65;7.82;;;11.30;99.90;;;;;;4917632;29;20096;-49
2022/04/16 09:00:24;;;;;;;12.73;8.25;;;11.30;99.90;;;;;;4913566;29;20048;-49
2022/04/16 09:02:56;;;;;;;11.43;8.13;;;11.40;99.90;;;;;;4917289;29;20071;-49
2022/04/16 09:05:28;;;;;;;11.60;8.07;;;11.40;99.90;;;;;;4914833;29;20040;-50
2022/04/16 09:07:58;;;;;;;11.93;7.63;;;11.50;99.90;;;;;;4911597;29;20044;-50
2022/04/16 09:10:28;;;;;;;14.73;8.38;;;11.60;99.90;;;;;;4915828;29;20060;-51
2022/04/16 09:12:58;;;;;;;10.73;7.18;;;11.50;99.90;;;;;;4913773;29;20040;-50
2022/04/16 09:15:26;;;;;;;11.25;6.95;;;11.40;99.90;;;;;;4915980;29;20425;-54
2022/04/16 09:17:58;;;;;;;12.18;7.13;;;11.40;99.90;;;;;;4915698;29;20052;-51
2022/04/16 09:20:38;;;;;;;11.05;7.30;;;11.40;99.90;;;;;;4914568;29;20044;-49
2022/04/16 09:23:19;;;;;;;11.38;7.78;;;11.40;99.90;;;;;;4916031;29;20539;-52
2022/04/16 09:25:46;;;;;;;11.85;7.05;;;11.40;99.90;;;;;;4915249;29;20043;-53
2022/04/16 09:28:14;;;;;;;;;;;11.50;99.90;;;;;;4914195;29;20040;-49
2022/04/16 09:30:52;;;;;;;11.20;6.88;;;11.40;99.90;;;;;;4915877;29;20388;-51
2022/04/16 09:33:20;;;;;;;9.73;7.05;;;11.50;99.90;;;;;;4915928;29;20122;-51
2022/04/16 09:35:47;;;;;;;12.95;7.40;;;11.60;99.90;;;;;;4908901;29;20127;-51
2022/04/16 09:38:14;;;;;;;;;;;11.70;99.90;;;;;;4915950;29;20040;-53
2022/04/16 09:40:46;;;;;;;7.80;5.72;;;11.90;99.90;;;;;;4916355;29;19923;-49
2022/04/16 09:43:13;;;;;;;9.52;6.15;;;12.00;99.90;;;;;;4911782;29;20060;-52
2022/04/16 09:45:40;;;;;;;11.43;6.85;;;12.10;99.90;;;;;;4915315;29;20068;-49
2022/04/16 09:48:11;;;;;;;11.20;7.65;;;12.10;99.90;;;;;;4913693;29;20051;-50
2022/04/16 09:50:40;;;;;;;9.73;6.72;;;12.00;99.90;;;;;;4928726;29;20048;-49
2022/04/16 09:53:07;;;;;;;15.35;6.40;;;12.10;99.90;;;;;;4935368;29;20552;-50
2022/04/16 09:55:36;;;;;;;9.55;6.07;;;12.20;99.90;;;;;;4935119;29;20063;-49
2022/04/16 09:58:06;;;;;;;6.72;5.03;;;12.30;99.90;;;;;;4913257;29;20409;-53
2022/04/16 10:00:36;;;;;;;8.18;5.90;;;12.30;99.90;;;;;;4916062;29;20127;-49
2022/04/16 10:03:23;;;;;;;7.57;5.53;;;12.20;99.90;;;;;;4916313;29;20050;-51
2022/04/16 10:05:50;;;;;;;10.88;6.05;;;12.10;99.90;;;;;;4913445;29;20036;-49
2022/04/16 10:08:18;;;;;;;10.05;6.28;;;12.30;99.90;;;;;;4916112;29;20405;-50
2022/04/16 10:10:53;;;;;;;9.73;6.28;;;12.30;99.90;;;;;;4915896;29;20504;-49
2022/04/16 10:13:22;;;;;;;8.10;5.63;;;12.50;99.90;;;;;;4916055;29;20580;-48
2022/04/16 10:16:02;;;;;;;12.13;6.45;;;12.50;99.90;;;;;;4911533;29;20163;-49
2022/04/16 10:18:32;;;;;;;10.05;6.32;;;12.30;99.90;;;;;;4908212;29;20572;-50
2022/04/16 10:21:00;;;;;;;8.80;5.70;;;11.90;99.90;;;;;;4915803;29;20541;-49
2022/04/16 10:23:32;;;;;;;7.45;5.80;;;11.50;99.90;;;;;;4914312;29;20040;-49
2022/04/16 10:26:06;;;;;;;10.35;6.75;;;11.10;99.90;;;;;;4914809;29;20111;-50
2022/04/16 10:28:41;;;;;;;10.80;6.78;;;10.80;99.90;;;;;;4913461;29;20123;-52
2022/04/16 10:31:25;;;;;;;11.32;6.63;;;10.40;99.90;;;;;;4914811;29;20120;-48
2022/04/16 10:34:05;;;;;;;10.93;6.63;;;10.20;99.90;;;;;;4915157;29;20068;-51
2022/04/16 10:36:49;;;;;;;12.48;7.10;;;9.90;99.90;;;;;;4914820;29;20117;-51
2022/04/16 10:39:18;;;;;;;11.93;6.22;;;9.70;99.90;;;;;;4913067;29;20059;-49
2022/04/16 10:41:55;;;;;;;11.40;6.53;;;9.70;99.90;;;;;;4912703;29;20055;-49
2022/04/16 10:44:24;;;;;;;9.93;6.18;;;9.50;99.90;;;;;;4914130;29;20051;-51
2022/04/16 10:46:52;;;;;;;11.23;6.60;;;9.50;99.90;;;;;;4914397;29;20043;-49
2022/04/16 10:49:23;;;;;;;13.00;7.55;;;9.50;99.90;;;;;;4912405;29;20047;-50
2022/04/16 10:51:52;;;;;;;10.40;7.22;;;9.60;99.90;;;;;;4897401;29;20084;-52
2022/04/16 10:54:28;;;;;;;11.30;6.78;;;9.60;99.90;;;;;;4897540;29;20441;-49
2022/04/16 10:56:55;;;;;;;12.27;6.65;;;9.70;99.90;;;;;;4907605;29;20056;-50
2022/04/16 10:59:43;;;;;;;11.55;6.88;;;9.70;99.90;;;;;;4912288;29;20036;-49
2022/04/16 11:02:23;;;;;;;9.48;6.00;;;9.80;99.90;;;;;;4913889;29;20111;-49
2022/04/16 11:05:00;;;;;;;9.10;6.18;;;9.90;99.90;;;;;;4914143;29;20040;-50
2022/04/16 11:07:29;;;;;;;9.98;6.10;;;9.90;99.90;;;;;;4912518;29;20088;-49
2022/04/16 11:09:57;;;;;;;9.88;6.25;;;10.00;99.90;;;;;;4913828;29;20048;-49
2022/04/16 11:12:25;;;;;;;8.57;5.57;;;10.10;99.90;;;;;;4913831;29;20123;-51
2022/04/16 11:14:53;;;;;;;8.63;4.65;;;10.20;99.90;;;;;;4913244;29;20127;-50
2022/04/16 11:17:20;;;;;;;8.10;5.28;;;10.40;99.90;;;;;;4912052;29;20048;-54
2022/04/16 11:20:00;;;;;;;7.90;5.43;;;10.50;99.90;;;;;;4913565;29;20048;-53
2022/04/16 11:22:28;;;;;;;8.13;4.97;;;10.60;99.90;;;;;;4913721;29;20086;-50
2022/04/16 11:24:55;;;;;;;7.72;5.15;;;10.70;99.90;;;;;;4913449;29;20501;-52
2022/04/16 11:35:57;;;;;;;8.70;5.10;;;10.80;99.90;;;;;;4915622;29;20059;-51
2022/04/16 11:38:27;;;;;;;6.75;4.70;;;10.80;99.90;;;;;;4917911;29;20046;-51
2022/04/16 11:40:54;;;;;;;6.68;4.70;;;10.80;99.90;;;;;;4916339;29;20055;-49
2022/04/16 11:43:24;;;;;;;6.28;4.28;;;10.70;99.90;;;;;;4918089;29;20044;-48
2022/04/16 11:45:51;;;;;;;6.18;4.55;;;10.70;99.90;;;;;;4915282;29;20401;-52
2022/04/16 11:48:18;;;;;;;;;;;10.80;99.90;;;;;;4900637;29;20050;-49
2022/04/16 11:50:44;;;;;;;5.95;4.18;;;10.90;99.90;;;;;;4916708;29;19987;-48
2022/04/16 11:53:12;;;;;;;5.70;3.88;;;11.00;99.90;;;;;;4917656;29;20048;-50
2022/04/16 11:55:47;;;;;;;5.28;3.65;;;11.00;99.90;;;;;;4917934;29;20128;-49
2022/04/16 11:58:14;;;;;;;6.25;4.65;;;11.10;99.90;;;;;;4916362;29;20051;-51
2022/04/16 12:00:55;;;;;;;5.82;3.70;;;11.10;99.90;;;;;;4917424;29;20040;-50
2022/04/16 12:03:33;;;;;;;5.88;3.80;;;11.00;99.90;;;;;;4917812;29;20048;-50
2022/04/16 12:06:00;;;;;;;6.20;3.92;;;10.80;99.90;;;;;;4914686;29;20032;-50
2022/04/16 12:08:27;;;;;;;5.68;3.53;;;10.80;99.90;;;;;;4917573;29;20062;-49
2022/04/16 12:10:56;;;;;;;;;;;10.70;99.90;;;;;;4917582;29;20058;-54
2022/04/16 12:13:22;;;;;;;5.07;3.05;;;10.60;99.90;;;;;;4917489;29;19934;-48
2022/04/16 12:15:49;;;;;;;4.32;3.47;;;10.60;99.90;;;;;;4916603;29;20043;-50
2022/04/16 12:18:22;;;;;;;5.72;3.72;;;10.60;99.90;;;;;;4917734;29;20099;-49
2022/04/16 12:20:49;;;;;;;4.93;3.45;;;10.60;99.90;;;;;;4917165;29;20043;-49
2022/04/16 12:23:23;;;;;;;5.18;3.40;;;10.50;99.90;;;;;;4912282;29;20044;-50
2022/04/16 12:26:01;;;;;;;5.85;3.80;;;10.40;99.90;;;;;;4917280;29;20497;-50
2022/04/16 12:28:31;;;;;;;;;;;10.30;99.90;;;;;;4917400;29;20044;-50
2022/04/16 12:30:58;;;;;;;5.47;3.30;;;10.30;99.90;;;;;;4915488;29;20348;-50
2022/04/16 12:33:27;;;;;;;6.05;3.75;;;10.40;99.90;;;;;;4917309;29;20044;-50
2022/04/16 12:35:57;;;;;;;6.15;3.83;;;10.50;99.90;;;;;;4909876;29;20063;-49
2022/04/16 12:38:25;;;;;;;5.47;3.60;;;10.60;99.90;;;;;;4917882;29;20063;-52
2022/04/16 12:41:02;;;;;;;;;;;10.70;99.90;;;;;;4913779;29;20044;-49
2022/04/16 12:43:29;;;;;;;6.45;3.67;;;11.00;99.90;;;;;;4898983;29;19923;-50
2022/04/16 12:45:56;;;;;;;5.22;3.58;;;11.00;99.90;;;;;;4912654;29;20063;-51
2022/04/16 12:48:23;;;;;;;4.22;3.13;;;10.90;99.90;;;;;;4908190;29;20079;-52
2022/04/16 12:50:49;;;;;;;4.45;3.33;;;11.00;99.90;;;;;;4912195;29;20044;-52
2022/04/16 12:53:16;;;;;;;6.47;3.65;;;10.90;99.90;;;;;;4917480;29;20036;-51
2022/04/16 12:55:43;;;;;;;5.25;3.67;;;10.90;99.90;;;;;;4917629;29;20466;-51
2022/04/16 12:58:09;;;;;;;7.67;4.07;;;10.70;99.90;;;;;;4915356;29;20048;-51
2022/04/16 13:00:36;;;;;;;4.45;3.13;;;10.40;99.90;;;;;;4916988;29;20336;-52
2022/04/16 13:03:04;;;;;;;5.13;3.08;;;9.80;99.90;;;;;;4916857;29;20441;-50
2022/04/16 13:05:32;;;;;;;4.40;2.97;;;9.30;99.90;;;;;;4909280;29;20040;-50
2022/04/16 13:08:05;;;;;;;4.13;2.70;;;9.00;99.90;;;;;;4910732;29;20072;-52
2022/04/16 13:10:32;;;;;;;2.53;1.92;;;8.80;99.90;;;;;;4916781;29;20044;-50
2022/04/16 13:13:01;;;;;;;3.10;2.20;;;8.70;99.90;;;;;;4917182;29;20100;-51
2022/04/16 13:15:28;;;;;;;3.88;2.67;;;8.50;99.90;;;;;;4917044;29;20516;-50
2022/04/16 13:17:55;;;;;;;6.85;3.17;;;8.30;99.90;;;;;;4915677;29;20108;-49
2022/04/16 13:20:21;;;;;;;4.82;2.67;;;8.20;99.90;;;;;;4916748;29;20040;-49
2022/04/16 13:22:48;;;;;;;7.13;3.13;;;8.20;99.90;;;;;;4916967;29;20688;-52
2022/04/16 13:25:16;;;;;;;5.80;3.20;;;8.40;99.90;;;;;;4916442;29;20108;-50